createdAt,value
2018-01-02T00:00:13.834Z,96379.33
2018-01-02T00:00:45.493Z,96373.52
2018-01-02T00:01:17.153Z,96381.59
2018-01-02T00:01:48.787Z,96378.78
2018-01-02T00:02:20.409Z,96381.01
2018-01-02T00:02:52.030Z,96382.38
2018-01-02T00:03:23.684Z,96383.42
2018-01-02T00:03:55.310Z,96384.22
2018-01-02T00:04:26.946Z,96389.30
2018-01-02T00:04:58.566Z,96384.28
2018-01-02T00:05:30.189Z,96384.22
2018-01-02T00:06:01.858Z,96392.48
2018-01-02T00:06:33.486Z,96390.84
2018-01-02T00:07:05.110Z,96390.84
2018-01-02T00:07:36.787Z,96384.11
2018-01-02T00:08:08.425Z,96383.33
2018-01-02T00:08:40.045Z,96380.87
2018-01-02T00:09:11.673Z,96385.39
2018-01-02T00:09:43.466Z,96383.69
2018-01-02T00:10:15.098Z,96382.00
2018-01-02T00:10:46.717Z,96384.16
2018-01-02T00:11:18.337Z,96378.22
2018-01-02T00:11:49.967Z,96382.03
2018-01-02T00:12:21.594Z,96385.03
2018-01-02T00:12:53.277Z,96386.81
2018-01-02T00:13:24.912Z,96387.17
2018-01-02T00:13:56.545Z,96377.48
2018-01-02T00:14:28.170Z,96386.33
2018-01-02T00:14:59.798Z,96387.28
2018-01-02T00:15:31.425Z,96377.16
2018-01-02T00:16:03.053Z,96383.16
2018-01-02T00:16:34.674Z,96376.36
2018-01-02T00:17:06.293Z,96386.25
2018-01-02T00:17:37.914Z,96381.26
2018-01-02T00:18:09.593Z,96377.06
2018-01-02T00:18:41.218Z,96376.62
2018-01-02T00:19:12.837Z,96379.17
2018-01-02T00:19:44.465Z,96377.93
2018-01-02T00:20:16.093Z,96377.01
2018-01-02T00:20:47.718Z,96380.01
2018-01-02T00:21:19.338Z,96374.92
2018-01-02T00:21:50.958Z,96377.55
2018-01-02T00:22:22.585Z,96380.42
2018-01-02T00:22:54.211Z,96378.70
2018-01-02T00:23:25.878Z,96377.01
2018-01-02T00:23:57.497Z,96375.64
2018-01-02T00:24:29.126Z,96376.92
2018-01-02T00:25:00.749Z,96373.09
2018-01-02T00:25:32.370Z,96373.09
2018-01-02T00:26:03.998Z,96372.67
2018-01-02T00:26:35.665Z,96371.78
2018-01-02T00:27:07.286Z,96369.64
2018-01-02T00:27:38.914Z,96369.70
2018-01-02T00:28:10.543Z,96372.31
2018-01-02T00:28:42.170Z,96372.79
2018-01-02T00:29:13.841Z,96369.55
2018-01-02T00:29:45.463Z,96373.33
2018-01-02T00:30:17.086Z,96373.80
2018-01-02T00:30:48.705Z,96368.25
2018-01-02T00:31:20.325Z,96366.53
2018-01-02T00:31:51.958Z,96366.97
2018-01-02T00:32:23.581Z,96363.17
2018-01-02T00:32:55.201Z,96369.61
2018-01-02T00:33:26.826Z,96374.28
2018-01-02T00:33:58.446Z,96364.15
2018-01-02T00:34:30.118Z,96369.52
2018-01-02T00:35:01.738Z,96374.75
2018-01-02T00:35:33.425Z,96371.66
2018-01-02T00:36:05.046Z,96369.55
2018-01-02T00:36:36.665Z,96372.49
2018-01-02T00:37:08.290Z,96375.44
2018-01-02T00:37:39.913Z,96366.41
2018-01-02T00:38:11.593Z,96371.45
2018-01-02T00:38:43.196Z,96366.73
2018-01-02T00:39:14.823Z,96372.20
2018-01-02T00:39:46.446Z,96379.83
2018-01-02T00:40:18.081Z,96373.12
2018-01-02T00:40:49.761Z,96377.42
2018-01-02T00:41:21.390Z,96376.80
2018-01-02T00:41:53.025Z,96379.36
2018-01-02T00:42:24.650Z,96379.71
2018-01-02T00:42:56.282Z,96373.83
2018-01-02T00:43:27.901Z,96376.36
2018-01-02T00:43:59.522Z,96375.49
2018-01-02T00:44:31.151Z,96369.44
2018-01-02T00:45:02.786Z,96373.98
2018-01-02T00:45:34.405Z,96370.68
2018-01-02T00:46:06.077Z,96380.92
2018-01-02T00:46:37.700Z,96374.25
2018-01-02T00:47:09.318Z,96370.09
2018-01-02T00:47:40.938Z,96371.66
2018-01-02T00:48:12.565Z,96367.27
2018-01-02T00:48:44.187Z,96376.50
2018-01-02T00:49:15.822Z,96367.56
2018-01-02T00:49:47.450Z,96371.33
2018-01-02T00:50:19.070Z,96368.69
2018-01-02T00:50:50.698Z,96373.47
2018-01-02T00:51:22.406Z,96367.59
2018-01-02T00:51:54.022Z,96364.11
2018-01-02T00:52:25.645Z,96367.83
2018-01-02T00:52:57.305Z,96366.96
2018-01-02T00:53:28.930Z,96370.05
2018-01-02T00:54:00.557Z,96362.83
2018-01-02T00:54:32.187Z,96364.87
2018-01-02T00:55:03.814Z,96361.85
2018-01-02T00:55:35.435Z,96366.94
2018-01-02T00:56:07.057Z,96365.12
2018-01-02T00:56:38.729Z,96365.15
2018-01-02T00:57:10.350Z,96359.05
2018-01-02T00:57:41.973Z,96362.98
2018-01-02T00:58:13.594Z,96366.69
2018-01-02T00:58:45.216Z,96359.56
2018-01-02T00:59:16.837Z,96358.93
2018-01-02T00:59:48.465Z,96350.41
2018-01-02T01:00:20.090Z,96356.53
2018-01-02T01:00:51.714Z,96357.90
2018-01-02T01:01:23.337Z,96354.45
2018-01-02T01:01:55.006Z,96344.02
2018-01-02T01:02:26.630Z,96346.12
2018-01-02T01:02:58.253Z,96337.30
2018-01-02T01:03:29.877Z,96348.45
2018-01-02T01:04:01.549Z,96341.02
2018-01-02T01:04:33.171Z,96347.52
2018-01-02T01:05:04.798Z,96338.99
2018-01-02T01:05:36.421Z,96346.16
2018-01-02T01:06:08.040Z,96342.58
2018-01-02T01:06:39.685Z,96346.80
2018-01-02T01:07:11.313Z,96348.85
2018-01-02T01:07:42.980Z,96340.35
2018-01-02T01:08:14.601Z,96339.43
2018-01-02T01:08:46.222Z,96340.70
2018-01-02T01:09:17.850Z,96343.30
2018-01-02T01:09:49.472Z,96335.75
2018-01-02T01:10:21.094Z,96337.38
2018-01-02T01:10:52.717Z,96336.88
2018-01-02T01:11:24.373Z,96328.70
2018-01-02T01:11:56.006Z,96335.95
2018-01-02T01:12:27.685Z,96330.42
2018-01-02T01:12:59.305Z,96331.38
2018-01-02T01:13:30.937Z,96327.55
2018-01-02T01:14:02.565Z,96330.64
2018-01-02T01:14:34.189Z,96334.31
2018-01-02T01:15:05.810Z,96327.48
2018-01-02T01:15:37.430Z,96324.12
2018-01-02T01:16:09.050Z,96326.77
2018-01-02T01:16:40.828Z,96326.77
2018-01-02T01:17:12.453Z,96326.59
2018-01-02T01:17:44.078Z,96319.81
2018-01-02T01:18:15.702Z,96319.27
2018-01-02T01:18:47.329Z,96323.43
2018-01-02T01:19:18.949Z,96320.52
2018-01-02T01:19:50.581Z,96325.16
2018-01-02T01:20:22.201Z,96321.03
2018-01-02T01:20:53.830Z,96322.46
2018-01-02T01:21:25.449Z,96323.33
2018-01-02T01:21:57.074Z,96319.91
2018-01-02T01:22:28.693Z,96311.59
2018-01-02T01:23:00.319Z,96318.19
2018-01-02T01:23:31.978Z,96324.22
2018-01-02T01:24:03.606Z,96319.11
2018-01-02T01:24:35.225Z,96319.46
2018-01-02T01:25:06.851Z,96318.32
2018-01-02T01:25:38.481Z,96313.72
2018-01-02T01:26:10.106Z,96314.38
2018-01-02T01:26:41.725Z,96313.48
2018-01-02T01:27:13.394Z,96318.89
2018-01-02T01:27:45.022Z,96312.08
2018-01-02T01:28:16.646Z,96312.50
2018-01-02T01:28:48.264Z,96317.61
2018-01-02T01:29:19.926Z,96315.09
2018-01-02T01:29:51.546Z,96316.88
2018-01-02T01:30:23.173Z,96322.75
2018-01-02T01:30:54.836Z,96320.30
2018-01-02T01:31:26.458Z,96326.30
2018-01-02T01:31:58.078Z,96323.83
2018-01-02T01:32:29.709Z,96322.05
2018-01-02T01:33:01.339Z,96318.19
2018-01-02T01:33:33.005Z,96321.13
2018-01-02T01:34:04.626Z,96318.28
2018-01-02T01:34:36.250Z,96319.17
2018-01-02T01:35:07.874Z,96317.86
2018-01-02T01:35:39.494Z,96324.25
2018-01-02T01:36:11.125Z,96318.30
2018-01-02T01:36:42.749Z,96324.31
2018-01-02T01:37:14.373Z,96329.39
2018-01-02T01:37:45.994Z,96324.38
2018-01-02T01:38:17.621Z,96320.03
2018-01-02T01:38:49.306Z,96321.31
2018-01-02T01:39:20.929Z,96326.13
2018-01-02T01:39:52.557Z,96325.80
2018-01-02T01:40:24.189Z,96326.66
2018-01-02T01:40:55.810Z,96321.14
2018-01-02T01:41:27.442Z,96320.19
2018-01-02T01:41:59.062Z,96327.85
2018-01-02T01:42:30.689Z,96324.14
2018-01-02T01:43:02.322Z,96314.48
2018-01-02T01:43:33.941Z,96321.30
2018-01-02T01:44:05.562Z,96325.66
2018-01-02T01:44:37.190Z,96318.38
2018-01-02T01:45:08.817Z,96324.77
2018-01-02T01:45:40.445Z,96324.77
2018-01-02T01:46:12.065Z,96321.98
2018-01-02T01:46:43.690Z,96320.52
2018-01-02T01:47:15.313Z,96315.55
2018-01-02T01:47:46.934Z,96321.25
2018-01-02T01:48:18.557Z,96320.66
2018-01-02T01:48:50.177Z,96324.39
2018-01-02T01:49:21.843Z,96318.11
2018-01-02T01:49:53.469Z,96324.26
2018-01-02T01:50:25.098Z,96320.97
2018-01-02T01:50:56.721Z,96320.58
2018-01-02T01:51:28.350Z,96320.99
2018-01-02T01:51:59.972Z,96320.91
2018-01-02T01:52:31.635Z,96324.20
2018-01-02T01:53:03.270Z,96319.54
2018-01-02T01:53:34.933Z,96319.92
2018-01-02T01:54:06.549Z,96320.78
2018-01-02T01:54:38.170Z,96322.00
2018-01-02T01:55:09.807Z,96322.06
2018-01-02T01:55:41.430Z,96323.37
2018-01-02T01:56:13.054Z,96327.33
2018-01-02T01:56:44.726Z,96296.98
2018-01-02T01:57:16.350Z,96322.09
2018-01-02T01:57:47.970Z,96330.17
2018-01-02T01:58:19.633Z,96323.78
2018-01-02T01:58:51.253Z,96322.19
2018-01-02T01:59:22.872Z,96317.45
2018-01-02T01:59:54.514Z,96326.46
2018-01-02T02:00:26.133Z,96325.18
2018-01-02T02:00:57.754Z,96323.94
2018-01-02T02:01:29.377Z,96324.35
2018-01-02T02:02:00.998Z,96316.39
2018-01-02T02:02:32.626Z,96320.99
2018-01-02T02:03:04.281Z,96317.80
2018-01-02T02:03:35.946Z,96325.90
2018-01-02T02:04:07.565Z,96328.03
2018-01-02T02:04:39.185Z,96316.98
2018-01-02T02:05:10.817Z,96324.30
2018-01-02T02:05:42.442Z,96320.05
2018-01-02T02:06:14.410Z,96323.05
2018-01-02T02:06:46.033Z,96317.53
2018-01-02T02:07:17.657Z,96324.80
2018-01-02T02:07:49.277Z,96320.05
2018-01-02T02:08:20.901Z,96317.02
2018-01-02T02:08:52.521Z,96314.27
2018-01-02T02:09:24.146Z,96318.12
2018-01-02T02:09:55.770Z,96312.09
2018-01-02T02:10:27.394Z,96321.89
2018-01-02T02:10:59.013Z,96315.98
2018-01-02T02:11:30.637Z,96317.29
2018-01-02T02:12:02.266Z,96317.70
2018-01-02T02:12:33.894Z,96320.25
2018-01-02T02:13:05.527Z,96323.23
2018-01-02T02:13:37.194Z,96320.23
2018-01-02T02:14:08.818Z,96318.09
2018-01-02T02:14:40.498Z,96318.63
2018-01-02T02:15:12.154Z,96319.93
2018-01-02T02:15:43.774Z,96313.55
2018-01-02T02:16:15.401Z,96314.91
2018-01-02T02:16:47.022Z,96314.73
2018-01-02T02:17:18.650Z,96317.38
2018-01-02T02:17:50.274Z,96320.77
2018-01-02T02:18:21.893Z,96318.63
2018-01-02T02:18:53.514Z,96322.95
2018-01-02T02:19:25.133Z,96315.48
2018-01-02T02:19:56.805Z,96316.70
2018-01-02T02:20:28.429Z,96315.71
2018-01-02T02:21:00.055Z,96316.48
2018-01-02T02:21:31.726Z,96313.52
2018-01-02T02:22:03.354Z,96314.31
2018-01-02T02:22:34.982Z,96314.31
2018-01-02T02:23:06.612Z,96314.31
2018-01-02T02:23:38.233Z,96316.01
2018-01-02T02:24:09.853Z,96314.73
2018-01-02T02:24:41.476Z,96308.77
2018-01-02T02:25:13.102Z,96308.35
2018-01-02T02:25:44.727Z,96310.02
2018-01-02T02:26:16.394Z,96308.77
2018-01-02T02:26:48.065Z,96309.98
2018-01-02T02:27:19.685Z,96311.77
2018-01-02T02:27:51.310Z,96304.05
2018-01-02T02:28:22.933Z,96305.86
2018-01-02T02:28:54.554Z,96301.49
2018-01-02T02:29:26.177Z,96298.94
2018-01-02T02:29:57.798Z,96297.66
2018-01-02T02:30:29.438Z,96281.90
2018-01-02T02:31:01.058Z,96297.16
2018-01-02T02:31:32.692Z,96299.33
2018-01-02T02:32:04.365Z,96296.35
2018-01-02T02:32:35.985Z,96291.98
2018-01-02T02:33:07.606Z,96299.20
2018-01-02T02:33:39.230Z,96287.73
2018-01-02T02:34:10.857Z,96295.28
2018-01-02T02:34:42.478Z,96296.53
2018-01-02T02:35:14.103Z,96288.74
2018-01-02T02:35:45.722Z,96292.55
2018-01-02T02:36:17.351Z,96292.55
2018-01-02T02:36:48.981Z,96290.85
2018-01-02T02:37:20.645Z,96294.72
2018-01-02T02:37:52.314Z,96295.01
2018-01-02T02:38:23.939Z,96298.52
2018-01-02T02:38:55.566Z,96293.05
2018-01-02T02:39:27.194Z,96304.09
2018-01-02T02:39:58.817Z,96294.30
2018-01-02T02:40:30.437Z,96296.44
2018-01-02T02:41:02.058Z,96297.12
2018-01-02T02:41:33.677Z,96297.59
2018-01-02T02:42:05.309Z,96300.98
2018-01-02T02:42:36.981Z,96296.80
2018-01-02T02:43:08.602Z,96291.27
2018-01-02T02:43:40.221Z,96289.13
2018-01-02T02:44:11.846Z,96284.80
2018-01-02T02:44:43.465Z,96289.48
2018-01-02T02:45:15.090Z,96292.10
2018-01-02T02:45:46.714Z,96285.72
2018-01-02T02:46:18.341Z,96289.02
2018-01-02T02:46:49.966Z,96282.78
2018-01-02T02:47:21.594Z,96283.48
2018-01-02T02:47:53.266Z,96282.27
2018-01-02T02:48:24.894Z,96277.12
2018-01-02T02:48:56.514Z,96279.06
2018-01-02T02:49:28.139Z,96283.06
2018-01-02T02:49:59.766Z,96285.15
2018-01-02T02:50:31.385Z,96277.48
2018-01-02T02:51:03.010Z,96277.93
2018-01-02T02:51:34.629Z,96282.23
2018-01-02T02:52:06.289Z,96277.01
2018-01-02T02:52:37.920Z,96272.31
2018-01-02T02:53:09.550Z,96274.45
2018-01-02T02:53:41.213Z,96272.85
2018-01-02T02:54:12.834Z,96272.05
2018-01-02T02:54:44.454Z,96269.91
2018-01-02T02:55:16.085Z,96271.16
2018-01-02T02:55:47.712Z,96271.90
2018-01-02T02:56:19.330Z,96261.39
2018-01-02T02:56:50.953Z,96263.82
2018-01-02T02:57:22.634Z,96267.33
2018-01-02T02:57:54.253Z,96263.47
2018-01-02T02:58:25.877Z,96264.78
2018-01-02T02:58:57.505Z,96264.66
2018-01-02T02:59:29.128Z,96263.80
2018-01-02T03:00:00.754Z,96261.27
2018-01-02T03:00:32.381Z,96260.05
2018-01-02T03:01:04.006Z,96269.83
2018-01-02T03:01:35.630Z,96264.66
2018-01-02T03:02:07.952Z,96263.80
2018-01-02T03:02:39.613Z,96264.72
2018-01-02T03:03:11.234Z,96271.61
2018-01-02T03:03:42.862Z,96268.58
2018-01-02T03:04:14.490Z,96275.38
2018-01-02T03:04:46.117Z,96265.91
2018-01-02T03:05:17.758Z,96273.18
2018-01-02T03:05:49.377Z,96273.14
2018-01-02T03:06:21.006Z,96271.55
2018-01-02T03:06:52.670Z,96263.11
2018-01-02T03:07:24.294Z,96273.39
2018-01-02T03:07:55.917Z,96270.33
2018-01-02T03:08:27.537Z,96267.72
2018-01-02T03:08:59.157Z,96272.14
2018-01-02T03:09:30.820Z,96272.83
2018-01-02T03:10:02.438Z,96267.20
2018-01-02T03:10:34.057Z,96265.09
2018-01-02T03:11:05.682Z,96266.77
2018-01-02T03:11:37.309Z,96268.99
2018-01-02T03:12:08.930Z,96269.02
2018-01-02T03:12:40.554Z,96259.67
2018-01-02T03:13:12.182Z,96270.30
2018-01-02T03:13:43.801Z,96271.58
2018-01-02T03:14:15.465Z,96267.74
2018-01-02T03:14:47.096Z,96266.17
2018-01-02T03:15:18.725Z,96270.74
2018-01-02T03:15:50.346Z,96262.73
2018-01-02T03:16:21.970Z,96271.73
2018-01-02T03:16:53.594Z,96265.79
2018-01-02T03:17:25.213Z,96272.85
2018-01-02T03:17:56.838Z,96267.48
2018-01-02T03:18:28.466Z,96267.45
2018-01-02T03:19:00.134Z,96266.47
2018-01-02T03:19:31.765Z,96269.44
2018-01-02T03:20:03.386Z,96261.45
2018-01-02T03:20:35.013Z,96262.67
2018-01-02T03:21:06.673Z,96264.39
2018-01-02T03:21:38.301Z,96264.39
2018-01-02T03:22:09.921Z,96259.79
2018-01-02T03:22:41.542Z,96261.09
2018-01-02T03:23:13.161Z,96261.90
2018-01-02T03:23:44.782Z,96265.31
2018-01-02T03:24:16.445Z,96262.77
2018-01-02T03:24:48.077Z,96268.34
2018-01-02T03:25:19.698Z,96265.38
2018-01-02T03:25:51.318Z,96266.62
2018-01-02T03:26:22.942Z,96263.11
2018-01-02T03:26:54.565Z,96265.77
2018-01-02T03:27:26.186Z,96259.77
2018-01-02T03:27:57.805Z,96255.98
2018-01-02T03:28:29.437Z,96260.53
2018-01-02T03:29:01.063Z,96261.03
2018-01-02T03:29:32.685Z,96256.25
2018-01-02T03:30:04.305Z,96256.82
2018-01-02T03:30:35.930Z,96255.12
2018-01-02T03:31:07.551Z,96258.55
2018-01-02T03:31:39.222Z,96258.98
2018-01-02T03:32:10.845Z,96254.86
2018-01-02T03:32:42.465Z,96261.25
2018-01-02T03:33:14.086Z,96264.31
2018-01-02T03:33:45.706Z,96266.13
2018-01-02T03:34:17.331Z,96268.20
2018-01-02T03:34:48.966Z,96261.88
2018-01-02T03:35:20.589Z,96261.38
2018-01-02T03:35:52.212Z,96262.38
2018-01-02T03:36:23.842Z,96258.95
2018-01-02T03:36:55.505Z,96259.67
2018-01-02T03:37:27.125Z,96262.90
2018-01-02T03:37:58.746Z,96260.63
2018-01-02T03:38:30.369Z,96265.17
2018-01-02T03:39:01.989Z,96258.98
2018-01-02T03:39:33.617Z,96262.19
2018-01-02T03:40:05.306Z,96261.55
2018-01-02T03:40:36.925Z,96261.31
2018-01-02T03:41:08.549Z,96263.63
2018-01-02T03:41:40.174Z,96265.77
2018-01-02T03:42:11.797Z,96262.56
2018-01-02T03:42:43.418Z,96269.88
2018-01-02T03:43:15.038Z,96268.23
2018-01-02T03:43:46.662Z,96262.36
2018-01-02T03:44:18.281Z,96258.47
2018-01-02T03:44:49.905Z,96254.26
2018-01-02T03:45:21.569Z,96254.70
2018-01-02T03:45:53.195Z,96252.27
2018-01-02T03:46:24.813Z,96255.14
2018-01-02T03:46:56.433Z,96255.23
2018-01-02T03:47:28.053Z,96250.22
2018-01-02T03:47:59.892Z,96249.66
2018-01-02T03:48:31.513Z,96254.28
2018-01-02T03:49:03.134Z,96252.06
2018-01-02T03:49:34.805Z,96253.97
2018-01-02T03:50:06.421Z,96253.52
2018-01-02T03:50:38.044Z,96250.36
2018-01-02T03:51:09.675Z,96248.23
2018-01-02T03:51:41.294Z,96245.67
2018-01-02T03:52:12.921Z,96250.97
2018-01-02T03:52:44.549Z,96253.80
2018-01-02T03:53:16.174Z,96256.96
2018-01-02T03:53:47.794Z,96256.23
2018-01-02T03:54:19.422Z,96258.97
2018-01-02T03:54:51.043Z,96257.67
2018-01-02T03:55:22.665Z,96258.94
2018-01-02T03:55:54.285Z,96257.45
2018-01-02T03:56:25.902Z,96257.61
2018-01-02T03:56:57.525Z,96266.70
2018-01-02T03:57:29.147Z,96267.80
2018-01-02T03:58:00.773Z,96262.60
2018-01-02T03:58:32.393Z,96263.34
2018-01-02T03:59:04.016Z,96266.22
2018-01-02T03:59:35.645Z,96272.16
2018-01-02T04:00:07.311Z,96262.81
2018-01-02T04:00:38.934Z,96272.07
2018-01-02T04:01:10.553Z,96265.36
2018-01-02T04:01:42.177Z,96274.98
2018-01-02T04:02:13.805Z,96272.02
2018-01-02T04:02:45.430Z,96267.27
2018-01-02T04:03:17.050Z,96268.06
2018-01-02T04:03:48.713Z,96272.73
2018-01-02T04:04:20.333Z,96270.62
2018-01-02T04:04:51.954Z,96270.53
2018-01-02T04:05:23.576Z,96273.88
2018-01-02T04:05:55.197Z,96268.24
2018-01-02T04:06:26.870Z,96264.86
2018-01-02T04:06:58.489Z,96266.97
2018-01-02T04:07:30.138Z,96268.66
2018-01-02T04:08:01.770Z,96268.98
2018-01-02T04:08:33.393Z,96269.46
2018-01-02T04:09:05.061Z,96268.60
2018-01-02T04:09:36.681Z,96269.48
2018-01-02T04:10:08.310Z,96268.63
2018-01-02T04:10:39.930Z,96273.32
2018-01-02T04:11:11.550Z,96272.88
2018-01-02T04:11:43.169Z,96269.88
2018-01-02T04:12:14.798Z,96271.19
2018-01-02T04:12:46.417Z,96268.69
2018-01-02T04:13:18.033Z,96270.88
2018-01-02T04:13:49.662Z,96272.52
2018-01-02T04:14:21.285Z,96278.16
2018-01-02T04:14:52.906Z,96273.05
2018-01-02T04:15:24.586Z,96272.75
2018-01-02T04:15:56.210Z,96273.64
2018-01-02T04:16:27.829Z,96269.88
2018-01-02T04:16:59.452Z,96272.88
2018-01-02T04:17:31.073Z,96268.63
2018-01-02T04:18:02.694Z,96264.06
2018-01-02T04:18:34.315Z,96269.28
2018-01-02T04:19:05.966Z,96271.89
2018-01-02T04:19:37.590Z,96275.27
2018-01-02T04:20:09.210Z,96278.24
2018-01-02T04:20:40.872Z,96281.33
2018-01-02T04:21:12.493Z,96278.39
2018-01-02T04:21:44.113Z,96281.80
2018-01-02T04:22:15.733Z,96280.52
2018-01-02T04:22:47.354Z,96284.77
2018-01-02T04:23:18.981Z,96277.20
2018-01-02T04:23:50.605Z,96277.55
2018-01-02T04:24:22.226Z,96273.40
2018-01-02T04:24:53.845Z,96274.65
2018-01-02T04:25:25.471Z,96278.83
2018-01-02T04:25:57.133Z,96272.89
2018-01-02T04:26:28.784Z,96273.73
2018-01-02T04:27:00.411Z,96274.14
2018-01-02T04:27:32.038Z,96275.03
2018-01-02T04:28:03.661Z,96282.30
2018-01-02T04:28:35.282Z,96279.25
2018-01-02T04:29:06.906Z,96274.95
2018-01-02T04:29:38.535Z,96274.95
2018-01-02T04:30:10.158Z,96270.29
2018-01-02T04:30:41.779Z,96273.61
2018-01-02T04:31:13.442Z,96281.23
2018-01-02T04:31:45.253Z,96271.92
2018-01-02T04:32:16.877Z,96274.00
2018-01-02T04:32:48.539Z,96276.94
2018-01-02T04:33:20.161Z,96283.67
2018-01-02T04:33:51.785Z,96278.56
2018-01-02T04:34:23.458Z,96283.26
2018-01-02T04:34:55.086Z,96282.78
2018-01-02T04:35:26.741Z,96278.95
2018-01-02T04:35:58.374Z,96284.50
2018-01-02T04:36:29.998Z,96281.83
2018-01-02T04:37:01.621Z,96285.19
2018-01-02T04:37:33.250Z,96282.11
2018-01-02T04:38:04.869Z,96279.25
2018-01-02T04:38:36.490Z,96284.33
2018-01-02T04:39:08.122Z,96281.36
2018-01-02T04:39:39.786Z,96288.60
2018-01-02T04:40:11.405Z,96285.61
2018-01-02T04:40:43.082Z,96278.81
2018-01-02T04:41:14.702Z,96286.47
2018-01-02T04:41:46.323Z,96290.23
2018-01-02T04:42:17.945Z,96284.24
2018-01-02T04:42:49.569Z,96288.48
2018-01-02T04:43:21.190Z,96289.73
2018-01-02T04:43:52.810Z,96280.92
2018-01-02T04:44:24.438Z,96291.02
2018-01-02T04:44:56.057Z,96283.83
2018-01-02T04:45:27.685Z,96287.59
2018-01-02T04:45:59.353Z,96285.05
2018-01-02T04:46:30.977Z,96287.95
2018-01-02T04:47:02.599Z,96287.59
2018-01-02T04:47:34.218Z,96288.04
2018-01-02T04:48:05.842Z,96290.95
2018-01-02T04:48:37.462Z,96295.25
2018-01-02T04:49:09.082Z,96293.59
2018-01-02T04:49:40.705Z,96291.87
2018-01-02T04:50:12.326Z,96288.48
2018-01-02T04:50:43.945Z,96288.09
2018-01-02T04:51:15.623Z,96287.23
2018-01-02T04:51:47.246Z,96288.45
2018-01-02T04:52:18.869Z,96294.39
2018-01-02T04:52:50.489Z,96287.95
2018-01-02T04:53:22.114Z,96295.25
2018-01-02T04:53:53.734Z,96295.16
2018-01-02T04:54:25.357Z,96293.92
2018-01-02T04:54:56.982Z,96292.64
2018-01-02T04:55:28.615Z,96300.36
2018-01-02T04:56:00.270Z,96294.84
2018-01-02T04:56:31.889Z,96301.63
2018-01-02T04:57:03.509Z,96300.36
2018-01-02T04:57:35.129Z,96296.53
2018-01-02T04:58:06.746Z,96294.03
2018-01-02T04:58:38.375Z,96294.89
2018-01-02T04:59:09.997Z,96291.98
2018-01-02T04:59:41.625Z,96298.72
2018-01-02T05:00:13.250Z,96300.45
2018-01-02T05:00:44.882Z,96299.55
2018-01-02T05:01:16.550Z,96301.72
2018-01-02T05:01:48.178Z,96298.78
2018-01-02T05:02:19.814Z,96299.23
2018-01-02T05:02:51.433Z,96297.09
2018-01-02T05:03:23.058Z,96301.34
2018-01-02T05:03:54.683Z,96297.89
2018-01-02T05:04:26.349Z,96299.28
2018-01-02T05:04:57.973Z,96301.81
2018-01-02T05:05:29.597Z,96299.70
2018-01-02T05:06:01.218Z,96305.66
2018-01-02T05:06:32.853Z,96303.17
2018-01-02T05:07:04.478Z,96310.44
2018-01-02T05:07:36.098Z,96308.42
2018-01-02T05:08:07.720Z,96305.48
2018-01-02T05:08:39.381Z,96305.92
2018-01-02T05:09:11.057Z,96299.99
2018-01-02T05:09:42.682Z,96306.45
2018-01-02T05:10:14.301Z,96310.31
2018-01-02T05:10:45.929Z,96304.88
2018-01-02T05:11:17.551Z,96307.83
2018-01-02T05:11:49.173Z,96307.05
2018-01-02T05:12:20.797Z,96311.68
2018-01-02T05:12:52.417Z,96305.75
2018-01-02T05:13:24.041Z,96307.05
2018-01-02T05:13:55.662Z,96303.73
2018-01-02T05:14:27.336Z,96312.21
2018-01-02T05:14:58.961Z,96303.89
2018-01-02T05:15:30.586Z,96305.20
2018-01-02T05:16:02.210Z,96306.89
2018-01-02T05:16:33.833Z,96305.67
2018-01-02T05:17:05.448Z,96311.22
2018-01-02T05:17:37.065Z,96306.27
2018-01-02T05:18:08.686Z,96311.70
2018-01-02T05:18:40.310Z,96311.75
2018-01-02T05:19:11.929Z,96310.06
2018-01-02T05:19:43.601Z,96315.19
2018-01-02T05:20:15.226Z,96319.44
2018-01-02T05:20:46.853Z,96314.80
2018-01-02T05:21:18.474Z,96318.60
2018-01-02T05:21:50.097Z,96324.95
2018-01-02T05:22:21.717Z,96320.30
2018-01-02T05:22:53.338Z,96318.60
2018-01-02T05:23:24.961Z,96321.13
2018-01-02T05:23:56.626Z,96316.08
2018-01-02T05:24:28.246Z,96318.13
2018-01-02T05:24:59.861Z,96317.63
2018-01-02T05:25:31.481Z,96317.22
2018-01-02T05:26:03.101Z,96319.32
2018-01-02T05:26:34.721Z,96322.70
2018-01-02T05:27:06.351Z,96315.88
2018-01-02T05:27:37.970Z,96321.78
2018-01-02T05:28:09.600Z,96324.81
2018-01-02T05:28:41.237Z,96319.65
2018-01-02T05:29:12.882Z,96329.00
2018-01-02T05:29:44.502Z,96325.97
2018-01-02T05:30:16.125Z,96324.73
2018-01-02T05:30:47.745Z,96324.73
2018-01-02T05:31:19.422Z,96319.18
2018-01-02T05:31:51.047Z,96321.73
2018-01-02T05:32:22.677Z,96327.16
2018-01-02T05:32:54.298Z,96325.11
2018-01-02T05:33:25.917Z,96321.23
2018-01-02T05:33:57.542Z,96315.33
2018-01-02T05:34:29.173Z,96325.45
2018-01-02T05:35:00.793Z,96325.39
2018-01-02T05:35:32.413Z,96325.41
2018-01-02T05:36:04.034Z,96327.44
2018-01-02T05:36:35.697Z,96329.13
2018-01-02T05:37:07.318Z,96320.64
2018-01-02T05:37:38.938Z,96319.36
2018-01-02T05:38:10.562Z,96323.16
2018-01-02T05:38:42.226Z,96322.33
2018-01-02T05:39:13.845Z,96327.83
2018-01-02T05:39:45.466Z,96332.54
2018-01-02T05:40:17.089Z,96326.61
2018-01-02T05:40:48.705Z,96332.56
2018-01-02T05:41:20.329Z,96327.47
2018-01-02T05:41:51.953Z,96322.36
2018-01-02T05:42:23.617Z,96328.30
2018-01-02T05:42:55.237Z,96325.74
2018-01-02T05:43:27.070Z,96332.23
2018-01-02T05:43:58.697Z,96326.58
2018-01-02T05:44:30.320Z,96327.85
2018-01-02T05:45:01.942Z,96330.41
2018-01-02T05:45:33.566Z,96332.09
2018-01-02T05:46:05.193Z,96327.83
2018-01-02T05:46:36.817Z,96322.75
2018-01-02T05:47:08.490Z,96329.52
2018-01-02T05:47:40.109Z,96328.24
2018-01-02T05:48:11.737Z,96318.48
2018-01-02T05:48:43.398Z,96317.97
2018-01-02T05:49:15.018Z,96320.52
2018-01-02T05:49:46.643Z,96317.11
2018-01-02T05:50:18.270Z,96323.02
2018-01-02T05:50:49.885Z,96321.38
2018-01-02T05:51:21.505Z,96321.38
2018-01-02T05:51:53.131Z,96316.70
2018-01-02T05:52:24.758Z,96323.02
2018-01-02T05:52:56.438Z,96327.73
2018-01-02T05:53:28.069Z,96325.60
2018-01-02T05:53:59.695Z,96330.70
2018-01-02T05:54:31.320Z,96325.60
2018-01-02T05:55:02.950Z,96325.60
2018-01-02T05:55:34.570Z,96326.02
2018-01-02T05:56:06.194Z,96333.28
2018-01-02T05:56:37.814Z,96333.70
2018-01-02T05:57:09.443Z,96328.18
2018-01-02T05:57:41.070Z,96335.84
2018-01-02T05:58:12.698Z,96334.98
2018-01-02T05:58:44.317Z,96335.42
2018-01-02T05:59:15.946Z,96337.53
2018-01-02T05:59:47.578Z,96333.73
2018-01-02T06:00:19.201Z,96337.97
2018-01-02T06:00:50.825Z,96340.88
2018-01-02T06:01:22.445Z,96337.11
2018-01-02T06:01:54.109Z,96338.39
2018-01-02T06:02:25.730Z,96343.08
2018-01-02T06:02:57.349Z,96343.91
2018-01-02T06:03:28.973Z,96346.02
2018-01-02T06:04:00.593Z,96344.33
2018-01-02T06:04:32.217Z,96346.05
2018-01-02T06:05:03.845Z,96347.77
2018-01-02T06:05:35.465Z,96349.02
2018-01-02T06:06:07.086Z,96351.51
2018-01-02T06:06:38.705Z,96351.15
2018-01-02T06:07:10.366Z,96353.28
2018-01-02T06:07:41.995Z,96357.03
2018-01-02T06:08:13.661Z,96360.91
2018-01-02T06:08:45.281Z,96357.95
2018-01-02T06:09:16.901Z,96362.22
2018-01-02T06:09:48.566Z,96363.99
2018-01-02T06:10:20.189Z,96364.35
2018-01-02T06:10:51.809Z,96365.24
2018-01-02T06:11:23.446Z,96367.73